sensor_id;sensor_type;location;lat;lon;timestamp;temperature;humidity
7588;DHT22;3835;48.850;8.938;2024-01-27T00:00:18;3.00;99.90
7588;DHT22;3835;48.850;8.938;2024-01-27T00:02:47;2.90;99.90
7588;DHT22;3835;48.850;8.938;2024-01-27T00:05:13;3.00;99.90
7588;DHT22;3835;48.850;8.938;2024-01-27T00:07:40;2.90;99.90
7588;DHT22;3835;48.850;8.938;2024-01-27T00:10:08;2.90;99.90
7588;DHT22;3835;48.850;8.938;2024-01-27T00:12:35;2.90;99.90
7588;DHT22;3835;48.850;8.938;2024-01-27T00:15:03;2.90;99.90
7588;DHT22;3835;48.850;8.938;2024-01-27T00:17:30;2.80;99.90
7588;DHT22;3835;48.850;8.938;2024-01-27T00:19:58;3.10;99.90
7588;DHT22;3835;48.850;8.938;2024-01-27T00:22:25;3.00;99.90
7588;DHT22;3835;48.850;8.938;2024-01-27T00:24:52;2.80;99.90
7588;DHT22;3835;48.850;8.938;2024-01-27T00:27:18;3.00;99.90
7588;DHT22;3835;48.850;8.938;2024-01-27T00:29:45;2.60;99.90
7588;DHT22;3835;48.850;8.938;2024-01-27T00:32:12;2.90;99.90
7588;DHT22;3835;48.850;8.938;2024-01-27T00:34:39;2.40;99.90
7588;DHT22;3835;48.850;8.938;2024-01-27T00:37:07;2.60;99.90
7588;DHT22;3835;48.850;8.938;2024-01-27T00:39:34;2.70;99.90
7588;DHT22;3835;48.850;8.938;2024-01-27T00:42:01;2.60;99.90
7588;DHT22;3835;48.850;8.938;2024-01-27T00:44:28;2.60;99.90
7588;DHT22;3835;48.850;8.938;2024-01-27T00:46:54;3.20;99.90
7588;DHT22;3835;48.850;8.938;2024-01-27T00:49:21;3.00;99.90
7588;DHT22;3835;48.850;8.938;2024-01-27T00:51:48;3.00;99.90
7588;DHT22;3835;48.850;8.938;2024-01-27T00:54:17;2.60;99.90
7588;DHT22;3835;48.850;8.938;2024-01-27T00:56:44;2.50;99.90
7588;DHT22;3835;48.850;8.938;2024-01-27T00:59:10;2.50;99.90
7588;DHT22;3835;48.850;8.938;2024-01-27T01:01:37;3.00;99.90
7588;DHT22;3835;48.850;8.938;2024-01-27T01:04:04;2.40;99.90
7588;DHT22;3835;48.850;8.938;2024-01-27T01:06:31;2.70;99.90
7588;DHT22;3835;48.850;8.938;2024-01-27T01:08:58;2.30;99.90
7588;DHT22;3835;48.850;8.938;2024-01-27T01:11:26;2.20;99.90
7588;DHT22;3835;48.850;8.938;2024-01-27T01:13:53;2.20;99.90
7588;DHT22;3835;48.850;8.938;2024-01-27T01:16:19;2.30;99.90
7588;DHT22;3835;48.850;8.938;2024-01-27T01:18:46;2.30;99.90
7588;DHT22;3835;48.850;8.938;2024-01-27T01:21:13;2.30;99.90
7588;DHT22;3835;48.850;8.938;2024-01-27T01:23:40;2.30;99.90
7588;DHT22;3835;48.850;8.938;2024-01-27T01:26:07;2.20;99.90
7588;DHT22;3835;48.850;8.938;2024-01-27T01:28:35;2.40;99.90
7588;DHT22;3835;48.850;8.938;2024-01-27T01:31:02;2.20;99.90
7588;DHT22;3835;48.850;8.938;2024-01-27T01:33:29;2.20;99.90
7588;DHT22;3835;48.850;8.938;2024-01-27T01:35:56;2.20;99.90
7588;DHT22;3835;48.850;8.938;2024-01-27T01:38:23;2.20;99.90
7588;DHT22;3835;48.850;8.938;2024-01-27T01:40:50;2.20;99.90
7588;DHT22;3835;48.850;8.938;2024-01-27T01:43:17;2.20;99.90
7588;DHT22;3835;48.850;8.938;2024-01-27T01:45:45;2.20;99.90
7588;DHT22;3835;48.850;8.938;2024-01-27T01:48:12;2.30;99.90
7588;DHT22;3835;48.850;8.938;2024-01-27T01:50:39;2.50;99.90
7588;DHT22;3835;48.850;8.938;2024-01-27T01:53:07;2.10;99.90
7588;DHT22;3835;48.850;8.938;2024-01-27T01:55:34;2.60;99.90
7588;DHT22;3835;48.850;8.938;2024-01-27T01:58:01;2.30;99.90
7588;DHT22;3835;48.850;8.938;2024-01-27T02:00:27;2.00;99.90
7588;DHT22;3835;48.850;8.938;2024-01-27T02:02:55;2.10;99.90
7588;DHT22;3835;48.850;8.938;2024-01-27T02:05:22;2.10;99.90
7588;DHT22;3835;48.850;8.938;2024-01-27T02:07:49;2.30;99.90
7588;DHT22;3835;48.850;8.938;2024-01-27T02:10:17;2.00;99.90
7588;DHT22;3835;48.850;8.938;2024-01-27T02:12:44;1.90;99.90
7588;DHT22;3835;48.850;8.938;2024-01-27T02:15:12;2.00;99.90
7588;DHT22;3835;48.850;8.938;2024-01-27T02:17:39;2.00;99.90
7588;DHT22;3835;48.850;8.938;2024-01-27T02:20:09;1.90;99.90
7588;DHT22;3835;48.850;8.938;2024-01-27T02:22:36;1.60;99.90
7588;DHT22;3835;48.850;8.938;2024-01-27T02:25:05;1.80;99.90
7588;DHT22;3835;48.850;8.938;2024-01-27T02:27:32;1.20;99.90
7588;DHT22;3835;48.850;8.938;2024-01-27T02:29:59;1.10;99.90
7588;DHT22;3835;48.850;8.938;2024-01-27T02:32:25;1.10;99.90
7588;DHT22;3835;48.850;8.938;2024-01-27T02:34:52;1.70;99.90
7588;DHT22;3835;48.850;8.938;2024-01-27T02:37:19;1.30;99.90
7588;DHT22;3835;48.850;8.938;2024-01-27T02:39:46;1.00;99.90
7588;DHT22;3835;48.850;8.938;2024-01-27T02:42:14;0.80;99.90
7588;DHT22;3835;48.850;8.938;2024-01-27T02:44:41;0.70;99.90
7588;DHT22;3835;48.850;8.938;2024-01-27T02:47:08;0.60;99.90
7588;DHT22;3835;48.850;8.938;2024-01-27T02:49:35;0.70;99.90
7588;DHT22;3835;48.850;8.938;2024-01-27T02:52:02;0.80;99.90
7588;DHT22;3835;48.850;8.938;2024-01-27T02:54:29;0.60;99.90
7588;DHT22;3835;48.850;8.938;2024-01-27T02:56:56;0.50;99.90
7588;DHT22;3835;48.850;8.938;2024-01-27T02:59:24;0.50;99.90
7588;DHT22;3835;48.850;8.938;2024-01-27T03:01:51;0.70;99.90
7588;DHT22;3835;48.850;8.938;2024-01-27T03:04:18;0.70;99.90
7588;DHT22;3835;48.850;8.938;2024-01-27T03:06:44;1.10;99.90
7588;DHT22;3835;48.850;8.938;2024-01-27T03:09:11;0.70;99.90
7588;DHT22;3835;48.850;8.938;2024-01-27T03:11:38;1.00;99.90
7588;DHT22;3835;48.850;8.938;2024-01-27T03:14:05;0.60;99.90
7588;DHT22;3835;48.850;8.938;2024-01-27T03:16:33;0.70;99.90
7588;DHT22;3835;48.850;8.938;2024-01-27T03:19:01;0.50;99.90
7588;DHT22;3835;48.850;8.938;2024-01-27T03:21:29;0.50;99.90
7588;DHT22;3835;48.850;8.938;2024-01-27T03:23:56;0.40;99.90
7588;DHT22;3835;48.850;8.938;2024-01-27T03:26:23;0.40;99.90
7588;DHT22;3835;48.850;8.938;2024-01-27T03:28:50;0.30;99.90
7588;DHT22;3835;48.850;8.938;2024-01-27T03:31:17;0.50;99.90
7588;DHT22;3835;48.850;8.938;2024-01-27T03:33:45;0.70;99.90
7588;DHT22;3835;48.850;8.938;2024-01-27T03:36:13;0.10;99.90
7588;DHT22;3835;48.850;8.938;2024-01-27T03:38:40;0.10;99.90
7588;DHT22;3835;48.850;8.938;2024-01-27T03:41:07;0.10;99.90
7588;DHT22;3835;48.850;8.938;2024-01-27T03:43:34;0.10;99.90
7588;DHT22;3835;48.850;8.938;2024-01-27T03:46:01;0.00;99.90
7588;DHT22;3835;48.850;8.938;2024-01-27T03:48:28;0.00;99.90
7588;DHT22;3835;48.850;8.938;2024-01-27T03:50:57;0.10;99.90
7588;DHT22;3835;48.850;8.938;2024-01-27T03:53:23;0.10;99.90
7588;DHT22;3835;48.850;8.938;2024-01-27T03:55:50;0.00;99.90
7588;DHT22;3835;48.850;8.938;2024-01-27T03:58:17;0.00;99.90
7588;DHT22;3835;48.850;8.938;2024-01-27T04:00:44;0.10;99.90
7588;DHT22;3835;48.850;8.938;2024-01-27T04:03:11;0.00;99.90
7588;DHT22;3835;48.850;8.938;2024-01-27T04:05:38;-0.10;99.90
7588;DHT22;3835;48.850;8.938;2024-01-27T04:08:07;-0.10;99.90
7588;DHT22;3835;48.850;8.938;2024-01-27T04:10:34;-0.10;99.90
7588;DHT22;3835;48.850;8.938;2024-01-27T04:13:01;-0.10;99.90
7588;DHT22;3835;48.850;8.938;2024-01-27T04:15:27;0.00;99.90
7588;DHT22;3835;48.850;8.938;2024-01-27T04:17:55;0.00;99.90
7588;DHT22;3835;48.850;8.938;2024-01-27T04:20:22;0.10;99.90
7588;DHT22;3835;48.850;8.938;2024-01-27T04:22:48;0.10;99.90
7588;DHT22;3835;48.850;8.938;2024-01-27T04:25:17;-0.20;99.90
7588;DHT22;3835;48.850;8.938;2024-01-27T04:27:44;-0.20;99.90
7588;DHT22;3835;48.850;8.938;2024-01-27T04:30:11;-0.30;99.90
7588;DHT22;3835;48.850;8.938;2024-01-27T04:32:39;-0.30;99.90
7588;DHT22;3835;48.850;8.938;2024-01-27T04:35:08;-0.40;99.90
7588;DHT22;3835;48.850;8.938;2024-01-27T04:37:35;-0.40;99.90
7588;DHT22;3835;48.850;8.938;2024-01-27T04:40:03;-0.40;99.90
7588;DHT22;3835;48.850;8.938;2024-01-27T04:42:32;-0.40;99.90
7588;DHT22;3835;48.850;8.938;2024-01-27T04:44:59;0.20;99.90
7588;DHT22;3835;48.850;8.938;2024-01-27T04:47:26;-0.50;99.90
7588;DHT22;3835;48.850;8.938;2024-01-27T04:49:53;-0.50;99.90
7588;DHT22;3835;48.850;8.938;2024-01-27T04:52:20;-0.50;99.90
7588;DHT22;3835;48.850;8.938;2024-01-27T04:54:47;0.40;99.90
7588;DHT22;3835;48.850;8.938;2024-01-27T04:57:14;-0.50;99.90
7588;DHT22;3835;48.850;8.938;2024-01-27T04:59:42;-0.10;99.90
7588;DHT22;3835;48.850;8.938;2024-01-27T05:02:10;-0.50;99.90
7588;DHT22;3835;48.850;8.938;2024-01-27T05:04:37;-0.60;99.90
7588;DHT22;3835;48.850;8.938;2024-01-27T05:07:04;-0.60;99.90
7588;DHT22;3835;48.850;8.938;2024-01-27T05:09:31;-0.60;99.90
7588;DHT22;3835;48.850;8.938;2024-01-27T05:11:59;-0.60;99.90
7588;DHT22;3835;48.850;8.938;2024-01-27T05:14:26;-0.60;99.90
7588;DHT22;3835;48.850;8.938;2024-01-27T05:16:54;-0.60;99.90
7588;DHT22;3835;48.850;8.938;2024-01-27T05:19:21;-0.30;99.90
7588;DHT22;3835;48.850;8.938;2024-01-27T05:21:48;-0.60;99.90
7588;DHT22;3835;48.850;8.938;2024-01-27T05:24:15;-0.60;99.90
7588;DHT22;3835;48.850;8.938;2024-01-27T05:26:42;-0.60;99.90
7588;DHT22;3835;48.850;8.938;2024-01-27T05:29:09;-0.80;99.90
7588;DHT22;3835;48.850;8.938;2024-01-27T05:31:36;-0.80;99.90
7588;DHT22;3835;48.850;8.938;2024-01-27T05:34:04;-0.70;99.90
7588;DHT22;3835;48.850;8.938;2024-01-27T05:36:31;-0.60;99.90
7588;DHT22;3835;48.850;8.938;2024-01-27T05:38:58;-0.70;99.90
7588;DHT22;3835;48.850;8.938;2024-01-27T05:41:27;-0.80;99.90
7588;DHT22;3835;48.850;8.938;2024-01-27T05:43:54;-0.80;99.90
7588;DHT22;3835;48.850;8.938;2024-01-27T05:46:23;-0.90;99.90
7588;DHT22;3835;48.850;8.938;2024-01-27T05:48:50;-0.20;99.90
7588;DHT22;3835;48.850;8.938;2024-01-27T05:51:20;-0.30;99.90
7588;DHT22;3835;48.850;8.938;2024-01-27T05:53:47;-0.90;99.90
7588;DHT22;3835;48.850;8.938;2024-01-27T05:56:14;-0.50;99.90
7588;DHT22;3835;48.850;8.938;2024-01-27T05:58:41;-0.80;99.90
7588;DHT22;3835;48.850;8.938;2024-01-27T06:01:08;-0.20;99.90
7588;DHT22;3835;48.850;8.938;2024-01-27T06:03:35;-0.70;99.90
7588;DHT22;3835;48.850;8.938;2024-01-27T06:06:02;-0.20;99.90
7588;DHT22;3835;48.850;8.938;2024-01-27T06:08:30;-0.70;99.90
7588;DHT22;3835;48.850;8.938;2024-01-27T06:10:57;-0.80;99.90
7588;DHT22;3835;48.850;8.938;2024-01-27T06:13:24;-0.80;99.90
7588;DHT22;3835;48.850;8.938;2024-01-27T06:15:51;-0.90;99.90
7588;DHT22;3835;48.850;8.938;2024-01-27T06:18:18;-0.90;99.90
7588;DHT22;3835;48.850;8.938;2024-01-27T06:20:45;-1.00;99.90
7588;DHT22;3835;48.850;8.938;2024-01-27T06:23:12;-1.00;99.90
7588;DHT22;3835;48.850;8.938;2024-01-27T06:25:40;-1.10;99.90
7588;DHT22;3835;48.850;8.938;2024-01-27T06:28:07;-0.60;99.90
7588;DHT22;3835;48.850;8.938;2024-01-27T06:30:34;-1.10;99.90
7588;DHT22;3835;48.850;8.938;2024-01-27T06:33:01;-0.40;99.90
7588;DHT22;3835;48.850;8.938;2024-01-27T06:35:28;-1.10;99.90
7588;DHT22;3835;48.850;8.938;2024-01-27T06:37:54;-1.10;99.90
7588;DHT22;3835;48.850;8.938;2024-01-27T06:40:21;-1.00;99.90
7588;DHT22;3835;48.850;8.938;2024-01-27T06:42:49;-1.00;99.90
7588;DHT22;3835;48.850;8.938;2024-01-27T06:45:16;-1.00;99.90
7588;DHT22;3835;48.850;8.938;2024-01-27T06:47:43;-1.10;99.90
7588;DHT22;3835;48.850;8.938;2024-01-27T06:50:10;-0.40;99.90
7588;DHT22;3835;48.850;8.938;2024-01-27T06:52:37;-1.10;99.90
7588;DHT22;3835;48.850;8.938;2024-01-27T06:55:04;-1.10;99.90
7588;DHT22;3835;48.850;8.938;2024-01-27T06:57:32;-1.10;99.90
7588;DHT22;3835;48.850;8.938;2024-01-27T07:00:00;-1.00;99.90
7588;DHT22;3835;48.850;8.938;2024-01-27T07:02:28;-1.00;99.90
7588;DHT22;3835;48.850;8.938;2024-01-27T07:04:55;-0.30;99.90
7588;DHT22;3835;48.850;8.938;2024-01-27T07:07:25;-1.00;99.90
7588;DHT22;3835;48.850;8.938;2024-01-27T07:09:52;-1.00;99.90
7588;DHT22;3835;48.850;8.938;2024-01-27T07:12:19;-0.40;99.90
7588;DHT22;3835;48.850;8.938;2024-01-27T07:14:46;-0.90;99.90
7588;DHT22;3835;48.850;8.938;2024-01-27T07:17:14;-0.10;99.90
7588;DHT22;3835;48.850;8.938;2024-01-27T07:19:41;-0.90;99.90
7588;DHT22;3835;48.850;8.938;2024-01-27T07:22:08;-0.60;99.90
7588;DHT22;3835;48.850;8.938;2024-01-27T07:24:35;0.00;99.90
7588;DHT22;3835;48.850;8.938;2024-01-27T07:27:02;-0.70;99.90
7588;DHT22;3835;48.850;8.938;2024-01-27T07:29:29;-0.70;99.90
7588;DHT22;3835;48.850;8.938;2024-01-27T07:31:56;-0.70;99.90
7588;DHT22;3835;48.850;8.938;2024-01-27T07:34:24;-0.70;99.90
7588;DHT22;3835;48.850;8.938;2024-01-27T07:36:51;-0.80;99.90
7588;DHT22;3835;48.850;8.938;2024-01-27T07:39:18;-0.90;99.90
7588;DHT22;3835;48.850;8.938;2024-01-27T07:41:45;-0.80;99.90
7588;DHT22;3835;48.850;8.938;2024-01-27T07:44:14;-0.70;99.90
7588;DHT22;3835;48.850;8.938;2024-01-27T07:46:41;-0.70;99.90
7588;DHT22;3835;48.850;8.938;2024-01-27T07:49:08;-0.60;99.90
7588;DHT22;3835;48.850;8.938;2024-01-27T07:51:38;-0.60;99.90
7588;DHT22;3835;48.850;8.938;2024-01-27T07:54:05;-0.50;99.90
7588;DHT22;3835;48.850;8.938;2024-01-27T07:56:32;0.80;99.90
7588;DHT22;3835;48.850;8.938;2024-01-27T07:58:59;0.40;99.90
7588;DHT22;3835;48.850;8.938;2024-01-27T08:01:27;-0.20;99.90
7588;DHT22;3835;48.850;8.938;2024-01-27T08:03:54;-0.20;99.90
7588;DHT22;3835;48.850;8.938;2024-01-27T08:06:28;-0.20;99.90
7588;DHT22;3835;48.850;8.938;2024-01-27T08:08:57;0.00;99.90
7588;DHT22;3835;48.850;8.938;2024-01-27T08:11:25;0.10;99.90
7588;DHT22;3835;48.850;8.938;2024-01-27T08:13:52;0.80;99.90
7588;DHT22;3835;48.850;8.938;2024-01-27T08:16:19;0.60;99.90
7588;DHT22;3835;48.850;8.938;2024-01-27T08:18:47;0.30;99.90
7588;DHT22;3835;48.850;8.938;2024-01-27T08:21:13;0.20;99.90
7588;DHT22;3835;48.850;8.938;2024-01-27T08:23:41;0.30;99.90
7588;DHT22;3835;48.850;8.938;2024-01-27T08:26:09;0.30;99.90
7588;DHT22;3835;48.850;8.938;2024-01-27T08:28:36;0.80;99.90
7588;DHT22;3835;48.850;8.938;2024-01-27T08:31:03;1.10;99.90
7588;DHT22;3835;48.850;8.938;2024-01-27T08:33:30;1.30;99.90
7588;DHT22;3835;48.850;8.938;2024-01-27T08:35:57;1.10;99.90
7588;DHT22;3835;48.850;8.938;2024-01-27T08:38:24;1.40;99.90
7588;DHT22;3835;48.850;8.938;2024-01-27T08:40:51;1.40;99.90
7588;DHT22;3835;48.850;8.938;2024-01-27T08:43:20;2.20;99.90
7588;DHT22;3835;48.850;8.938;2024-01-27T08:45:46;2.20;99.90
7588;DHT22;3835;48.850;8.938;2024-01-27T08:48:13;1.70;99.90
7588;DHT22;3835;48.850;8.938;2024-01-27T08:50:40;2.50;99.90
7588;DHT22;3835;48.850;8.938;2024-01-27T08:53:07;1.70;99.90
7588;DHT22;3835;48.850;8.938;2024-01-27T08:55:34;2.50;99.90
7588;DHT22;3835;48.850;8.938;2024-01-27T08:58:01;1.80;99.90
7588;DHT22;3835;48.850;8.938;2024-01-27T09:00:29;3.00;99.90
7588;DHT22;3835;48.850;8.938;2024-01-27T09:02:56;2.60;99.90
7588;DHT22;3835;48.850;8.938;2024-01-27T09:05:23;2.10;99.90
7588;DHT22;3835;48.850;8.938;2024-01-27T09:07:50;2.90;99.90
7588;DHT22;3835;48.850;8.938;2024-01-27T09:10:17;2.90;99.90
7588;DHT22;3835;48.850;8.938;2024-01-27T09:12:44;3.10;99.90
7588;DHT22;3835;48.850;8.938;2024-01-27T09:15:11;3.10;99.90
7588;DHT22;3835;48.850;8.938;2024-01-27T09:17:39;2.60;99.90
7588;DHT22;3835;48.850;8.938;2024-01-27T09:20:09;2.70;99.90
7588;DHT22;3835;48.850;8.938;2024-01-27T09:22:36;2.80;99.90
7588;DHT22;3835;48.850;8.938;2024-01-27T09:25:03;3.20;99.90
7588;DHT22;3835;48.850;8.938;2024-01-27T09:27:30;3.00;99.90
7588;DHT22;3835;48.850;8.938;2024-01-27T09:29:58;3.20;99.90
7588;DHT22;3835;48.850;8.938;2024-01-27T09:32:24;3.20;99.90
7588;DHT22;3835;48.850;8.938;2024-01-27T09:34:53;3.50;99.90
7588;DHT22;3835;48.850;8.938;2024-01-27T09:37:19;3.60;99.90
7588;DHT22;3835;48.850;8.938;2024-01-27T09:39:46;3.90;99.90
7588;DHT22;3835;48.850;8.938;2024-01-27T09:42:14;4.40;99.90
7588;DHT22;3835;48.850;8.938;2024-01-27T09:44:43;4.00;99.90
7588;DHT22;3835;48.850;8.938;2024-01-27T09:47:11;3.90;99.90
7588;DHT22;3835;48.850;8.938;2024-01-27T09:49:39;4.30;99.90
7588;DHT22;3835;48.850;8.938;2024-01-27T09:52:08;4.00;99.90
7588;DHT22;3835;48.850;8.938;2024-01-27T09:54:35;3.80;99.90
7588;DHT22;3835;48.850;8.938;2024-01-27T09:57:02;4.00;99.90
7588;DHT22;3835;48.850;8.938;2024-01-27T09:59:29;3.80;99.90
7588;DHT22;3835;48.850;8.938;2024-01-27T10:01:59;4.10;99.90
7588;DHT22;3835;48.850;8.938;2024-01-27T10:04:27;4.00;99.90
7588;DHT22;3835;48.850;8.938;2024-01-27T10:06:57;4.10;99.90
7588;DHT22;3835;48.850;8.938;2024-01-27T10:09:25;4.30;99.90
7588;DHT22;3835;48.850;8.938;2024-01-27T10:11:54;4.50;99.90
7588;DHT22;3835;48.850;8.938;2024-01-27T10:14:22;4.50;99.90
7588;DHT22;3835;48.850;8.938;2024-01-27T10:16:49;4.40;99.90
7588;DHT22;3835;48.850;8.938;2024-01-27T10:19:16;4.30;99.90
7588;DHT22;3835;48.850;8.938;2024-01-27T10:21:44;4.60;99.90
7588;DHT22;3835;48.850;8.938;2024-01-27T10:24:11;4.70;99.90
7588;DHT22;3835;48.850;8.938;2024-01-27T10:26:40;4.30;99.90
7588;DHT22;3835;48.850;8.938;2024-01-27T10:29:06;4.80;99.90
7588;DHT22;3835;48.850;8.938;2024-01-27T10:31:35;5.10;99.90
7588;DHT22;3835;48.850;8.938;2024-01-27T10:34:02;5.20;99.90
7588;DHT22;3835;48.850;8.938;2024-01-27T10:36:39;5.20;99.90
7588;DHT22;3835;48.850;8.938;2024-01-27T10:39:25;5.20;99.90
7588;DHT22;3835;48.850;8.938;2024-01-27T10:41:53;5.20;99.90
7588;DHT22;3835;48.850;8.938;2024-01-27T10:44:20;5.30;99.90
7588;DHT22;3835;48.850;8.938;2024-01-27T10:46:48;5.20;99.90
7588;DHT22;3835;48.850;8.938;2024-01-27T10:49:16;5.10;99.90
7588;DHT22;3835;48.850;8.938;2024-01-27T10:51:45;5.30;99.90
7588;DHT22;3835;48.850;8.938;2024-01-27T10:54:14;5.30;99.90
7588;DHT22;3835;48.850;8.938;2024-01-27T10:56:42;5.40;99.90
7588;DHT22;3835;48.850;8.938;2024-01-27T10:59:12;5.30;99.90
7588;DHT22;3835;48.850;8.938;2024-01-27T11:01:41;5.40;99.90
7588;DHT22;3835;48.850;8.938;2024-01-27T11:04:09;5.30;99.90
7588;DHT22;3835;48.850;8.938;2024-01-27T11:06:39;5.40;99.90
7588;DHT22;3835;48.850;8.938;2024-01-27T11:09:08;5.40;99.90
7588;DHT22;3835;48.850;8.938;2024-01-27T11:11:38;5.50;99.90
7588;DHT22;3835;48.850;8.938;2024-01-27T11:14:05;5.70;99.90
7588;DHT22;3835;48.850;8.938;2024-01-27T11:16:34;5.60;99.90
7588;DHT22;3835;48.850;8.938;2024-01-27T11:19:01;5.50;99.90
7588;DHT22;3835;48.850;8.938;2024-01-27T11:21:27;5.50;99.90
7588;DHT22;3835;48.850;8.938;2024-01-27T11:23:54;5.60;99.90
7588;DHT22;3835;48.850;8.938;2024-01-27T11:26:23;5.50;99.90
7588;DHT22;3835;48.850;8.938;2024-01-27T11:28:51;5.40;99.90
7588;DHT22;3835;48.850;8.938;2024-01-27T11:31:19;5.50;99.90
7588;DHT22;3835;48.850;8.938;2024-01-27T11:33:50;5.50;99.90
7588;DHT22;3835;48.850;8.938;2024-01-27T11:36:21;5.50;99.90
7588;DHT22;3835;48.850;8.938;2024-01-27T11:38:49;5.50;99.90
7588;DHT22;3835;48.850;8.938;2024-01-27T11:41:26;5.60;99.90
7588;DHT22;3835;48.850;8.938;2024-01-27T11:43:54;5.70;99.90
7588;DHT22;3835;48.850;8.938;2024-01-27T11:46:21;5.60;99.90
7588;DHT22;3835;48.850;8.938;2024-01-27T11:48:49;5.70;99.90
7588;DHT22;3835;48.850;8.938;2024-01-27T11:51:18;5.80;99.90
7588;DHT22;3835;48.850;8.938;2024-01-27T11:53:45;6.00;99.90
7588;DHT22;3835;48.850;8.938;2024-01-27T11:56:12;5.70;99.90
7588;DHT22;3835;48.850;8.938;2024-01-27T11:58:46;5.90;99.90
7588;DHT22;3835;48.850;8.938;2024-01-27T12:01:14;5.90;99.90
7588;DHT22;3835;48.850;8.938;2024-01-27T12:03:41;6.00;99.90
7588;DHT22;3835;48.850;8.938;2024-01-27T12:06:09;6.10;99.90
7588;DHT22;3835;48.850;8.938;2024-01-27T12:08:36;6.00;99.90
7588;DHT22;3835;48.850;8.938;2024-01-27T12:11:03;5.90;99.90
7588;DHT22;3835;48.850;8.938;2024-01-27T12:13:30;5.80;99.90
7588;DHT22;3835;48.850;8.938;2024-01-27T12:15:57;6.00;99.90
7588;DHT22;3835;48.850;8.938;2024-01-27T12:18:24;5.90;99.90
7588;DHT22;3835;48.850;8.938;2024-01-27T12:20:55;5.70;99.90
7588;DHT22;3835;48.850;8.938;2024-01-27T12:23:24;5.70;99.90
7588;DHT22;3835;48.850;8.938;2024-01-27T12:25:54;5.90;99.90
7588;DHT22;3835;48.850;8.938;2024-01-27T12:28:22;5.80;99.90
7588;DHT22;3835;48.850;8.938;2024-01-27T12:30:50;5.90;99.90
7588;DHT22;3835;48.850;8.938;2024-01-27T12:33:19;6.00;99.90
7588;DHT22;3835;48.850;8.938;2024-01-27T12:35:50;6.00;99.90
7588;DHT22;3835;48.850;8.938;2024-01-27T12:38:17;6.00;99.90
7588;DHT22;3835;48.850;8.938;2024-01-27T12:40:45;6.00;99.90
7588;DHT22;3835;48.850;8.938;2024-01-27T12:43:12;6.10;99.90
7588;DHT22;3835;48.850;8.938;2024-01-27T12:45:40;6.10;99.90
7588;DHT22;3835;48.850;8.938;2024-01-27T12:48:07;6.20;99.90
7588;DHT22;3835;48.850;8.938;2024-01-27T12:50:33;6.10;99.90
7588;DHT22;3835;48.850;8.938;2024-01-27T12:53:00;6.20;99.90
7588;DHT22;3835;48.850;8.938;2024-01-27T12:55:27;6.20;99.90
7588;DHT22;3835;48.850;8.938;2024-01-27T12:57:55;6.10;99.90
7588;DHT22;3835;48.850;8.938;2024-01-27T13:00:23;6.20;99.90
7588;DHT22;3835;48.850;8.938;2024-01-27T13:02:49;6.20;99.90
7588;DHT22;3835;48.850;8.938;2024-01-27T13:05:16;6.20;99.90
7588;DHT22;3835;48.850;8.938;2024-01-27T13:07:43;6.40;99.90
7588;DHT22;3835;48.850;8.938;2024-01-27T13:10:10;6.30;99.90
7588;DHT22;3835;48.850;8.938;2024-01-27T13:12:37;6.30;99.90
7588;DHT22;3835;48.850;8.938;2024-01-27T13:15:06;6.30;99.90
7588;DHT22;3835;48.850;8.938;2024-01-27T13:17:33;6.30;99.90
7588;DHT22;3835;48.850;8.938;2024-01-27T13:19:59;6.30;99.90
7588;DHT22;3835;48.850;8.938;2024-01-27T13:22:26;6.10;99.90
7588;DHT22;3835;48.850;8.938;2024-01-27T13:24:53;6.20;99.90
7588;DHT22;3835;48.850;8.938;2024-01-27T13:27:22;6.10;99.90
7588;DHT22;3835;48.850;8.938;2024-01-27T13:29:49;6.20;99.90
7588;DHT22;3835;48.850;8.938;2024-01-27T13:32:17;6.20;99.90
7588;DHT22;3835;48.850;8.938;2024-01-27T13:34:44;6.20;99.90
7588;DHT22;3835;48.850;8.938;2024-01-27T13:37:11;6.20;99.90
7588;DHT22;3835;48.850;8.938;2024-01-27T13:39:38;6.30;99.90
7588;DHT22;3835;48.850;8.938;2024-01-27T13:42:04;6.20;99.90
7588;DHT22;3835;48.850;8.938;2024-01-27T13:44:32;6.20;99.90
7588;DHT22;3835;48.850;8.938;2024-01-27T13:47:01;6.10;99.90
7588;DHT22;3835;48.850;8.938;2024-01-27T13:49:32;6.10;99.90
7588;DHT22;3835;48.850;8.938;2024-01-27T13:51:59;6.10;99.90
7588;DHT22;3835;48.850;8.938;2024-01-27T13:54:26;6.10;99.90
7588;DHT22;3835;48.850;8.938;2024-01-27T13:56:53;6.20;99.90
7588;DHT22;3835;48.850;8.938;2024-01-27T13:59:20;6.10;99.90
7588;DHT22;3835;48.850;8.938;2024-01-27T14:01:47;6.10;99.90
7588;DHT22;3835;48.850;8.938;2024-01-27T14:04:13;6.00;99.90
7588;DHT22;3835;48.850;8.938;2024-01-27T14:06:42;6.00;99.90
7588;DHT22;3835;48.850;8.938;2024-01-27T14:09:09;6.10;99.90
7588;DHT22;3835;48.850;8.938;2024-01-27T14:11:36;6.10;99.90
7588;DHT22;3835;48.850;8.938;2024-01-27T14:14:02;6.00;99.90
7588;DHT22;3835;48.850;8.938;2024-01-27T14:16:29;6.00;99.90
7588;DHT22;3835;48.850;8.938;2024-01-27T14:18:57;6.10;99.90
7588;DHT22;3835;48.850;8.938;2024-01-27T14:21:24;5.90;99.90
7588;DHT22;3835;48.850;8.938;2024-01-27T14:23:54;5.90;99.90
7588;DHT22;3835;48.850;8.938;2024-01-27T14:26:26;5.90;99.90
7588;DHT22;3835;48.850;8.938;2024-01-27T14:28:54;6.00;99.90
7588;DHT22;3835;48.850;8.938;2024-01-27T14:31:20;5.80;99.90
7588;DHT22;3835;48.850;8.938;2024-01-27T14:33:47;5.90;99.90
7588;DHT22;3835;48.850;8.938;2024-01-27T14:36:14;5.80;99.90
7588;DHT22;3835;48.850;8.938;2024-01-27T14:38:42;5.80;99.90
7588;DHT22;3835;48.850;8.938;2024-01-27T14:41:10;5.90;99.90
7588;DHT22;3835;48.850;8.938;2024-01-27T14:43:37;5.80;99.90
7588;DHT22;3835;48.850;8.938;2024-01-27T14:46:04;5.80;99.90
7588;DHT22;3835;48.850;8.938;2024-01-27T14:48:31;5.70;99.90
7588;DHT22;3835;48.850;8.938;2024-01-27T14:50:59;5.70;99.90
7588;DHT22;3835;48.850;8.938;2024-01-27T14:53:25;5.60;99.90
7588;DHT22;3835;48.850;8.938;2024-01-27T14:55:53;5.70;99.90
7588;DHT22;3835;48.850;8.938;2024-01-27T14:58:21;5.60;99.90
7588;DHT22;3835;48.850;8.938;2024-01-27T15:00:49;5.80;99.90
7588;DHT22;3835;48.850;8.938;2024-01-27T15:03:18;5.30;99.90
7588;DHT22;3835;48.850;8.938;2024-01-27T15:05:45;5.20;99.90
7588;DHT22;3835;48.850;8.938;2024-01-27T15:08:11;5.30;99.90
7588;DHT22;3835;48.850;8.938;2024-01-27T15:10:38;5.30;99.90
7588;DHT22;3835;48.850;8.938;2024-01-27T15:13:08;5.20;99.90
7588;DHT22;3835;48.850;8.938;2024-01-27T15:15:37;5.20;99.90
7588;DHT22;3835;48.850;8.938;2024-01-27T15:18:05;5.20;99.90
7588;DHT22;3835;48.850;8.938;2024-01-27T15:20:35;5.20;99.90
7588;DHT22;3835;48.850;8.938;2024-01-27T15:23:03;5.20;99.90
7588;DHT22;3835;48.850;8.938;2024-01-27T15:25:30;5.10;99.90
7588;DHT22;3835;48.850;8.938;2024-01-27T15:27:57;5.20;99.90
7588;DHT22;3835;48.850;8.938;2024-01-27T15:30:24;5.00;99.90
7588;DHT22;3835;48.850;8.938;2024-01-27T15:32:52;5.00;99.90
7588;DHT22;3835;48.850;8.938;2024-01-27T15:35:19;4.90;99.90
7588;DHT22;3835;48.850;8.938;2024-01-27T15:37:46;4.80;99.90
7588;DHT22;3835;48.850;8.938;2024-01-27T15:40:13;4.70;99.90
7588;DHT22;3835;48.850;8.938;2024-01-27T15:42:40;4.70;99.90
7588;DHT22;3835;48.850;8.938;2024-01-27T15:45:07;4.60;99.90
7588;DHT22;3835;48.850;8.938;2024-01-27T15:47:34;4.60;99.90
7588;DHT22;3835;48.850;8.938;2024-01-27T15:50:03;4.90;99.90
7588;DHT22;3835;48.850;8.938;2024-01-27T15:52:30;4.50;99.90
7588;DHT22;3835;48.850;8.938;2024-01-27T15:54:57;4.60;99.90
7588;DHT22;3835;48.850;8.938;2024-01-27T15:57:24;4.50;99.90
7588;DHT22;3835;48.850;8.938;2024-01-27T15:59:52;4.30;99.90
7588;DHT22;3835;48.850;8.938;2024-01-27T16:02:20;4.30;99.90
7588;DHT22;3835;48.850;8.938;2024-01-27T16:04:47;4.20;99.90
7588;DHT22;3835;48.850;8.938;2024-01-27T16:07:15;4.40;99.90
7588;DHT22;3835;48.850;8.938;2024-01-27T16:09:46;4.10;99.90
7588;DHT22;3835;48.850;8.938;2024-01-27T16:12:13;4.00;99.90
7588;DHT22;3835;48.850;8.938;2024-01-27T16:14:39;4.20;99.90